सभी
Toorak Research Stn Airport (Toorak Research Stn, Queensland) YTKS मौसम
There is no TAF data available at YTKS. Showing TAF data for YJLC (26 mi N).
JCK Terminal Area Forecast (no data for YTKS)
| Date | Time (AEST) | Flight Rules | Wind Dir. | Speed | Type | Height AGL (ft) | Visibility | Remarks | ||||||
|---|---|---|---|---|---|---|---|---|---|---|---|---|---|---|
There is no METAR data available at YTKS. Showing METAR data for YJLC (26 mi N).
Recent JCK METAR history (no data for YTKS)
| Date | Time (AEST) | Flight Rules | Wind Dir. | Speed | Type | Height AGL (ft) | Visibility | Temp (°C) | Temp (°F) | Dew Point (°C) | Dew Point (°F) | Rel. Humid. | Pressure | Density Altitude | Remarks |
|---|---|---|---|---|---|---|---|---|---|---|---|---|---|---|---|
| 03-मई | 11:00 | VFR | Calm | 10000 meters | 31° | 87° | 19° | 66° | 49% | 1015 mb | 2,271 ft | ||||
| 03-मई | 10:00 | VFR | Calm | 10000 meters | 29° | 84° | 19° | 66° | 55% | 1016 mb | 2,002 ft | ||||
| 03-मई | 09:00 | VFR | Calm | 10000 meters | 25° | 77° | 18° | 64° | 65% | 1015 mb | 1,551 ft | ||||
| 03-मई | 08:00 | VFR | Calm | 10000 meters | 21° | 69° | 18° | 64° | 83% | 1015 mb | 1,071 ft | ||||
| 03-मई | 07:00 | VFR | Calm | 10000 meters | 17° | 62° | 16° | 60° | 94% | 1014 mb | 621 ft | ||||
| 03-मई | 06:00 | VFR | Calm | 10000 meters | 17° | 62° | 15° | 59° | 88% | 1013 mb | 650 ft | ||||
| 03-मई | 05:00 | VFR | Calm | 10000 meters | 17° | 62° | 16° | 60° | 94% | 1012 mb | 680 ft | ||||
| 03-मई | 04:00 | VFR | Calm | 10000 meters | 18° | 64° | 16° | 60° | 88% | 1012 mb | 800 ft | ||||
| 03-मई | 03:00 | VFR | Calm | 10000 meters | 18° | 64° | 16° | 60° | 88% | 1012 mb | 800 ft | ||||
| 03-मई | 02:00 | VFR | Calm | 10000 meters | 19° | 66° | 16° | 60° | 83% | 1013 mb | 890 ft | ||||
| 03-मई | 01:00 | VFR | Calm | Few |
11,000 |
10000 meters | 20° | 68° | 16° | 60° | 78% | 1013 mb | 1,010 ft | ||
| 03-मई | 00:00 | VFR | Calm | 10000 meters | 20° | 68° | 16° | 60° | 78% | 1014 mb | 981 ft | ||||
| 02-मई | 23:00 | VFR | Calm | Few |
11,000 |
10000 meters | 21° | 69° | 16° | 60° | 73% | 1014 mb | 1,101 ft | ||
| 02-मई | 22:00 | VFR | Calm | 10000 meters | 22° | 71° | 16° | 60° | 69% | 1014 mb | 1,221 ft | ||||
| 02-मई | 21:00 | VFR | Calm | 10000 meters | 22° | 71° | 16° | 60° | 69% | 1014 mb | 1,221 ft | ||||
| 02-मई | 20:00 | VFR | Calm | 10000 meters | 24° | 75° | 16° | 60° | 61% | 1013 mb | 1,490 ft | ||||
| 02-मई | 19:00 | VFR | Calm | 10000 meters | 25° | 77° | 16° | 60° | 57% | 1012 mb | 1,640 ft | ||||
| 02-मई | 18:00 | VFR | Calm | 10000 meters | 29° | 84° | 17° | 62° | 48% | 1012 mb | 2,120 ft | ||||
| 02-मई | 17:00 | VFR | Calm | 10000 meters | 33° | 91° | 16° | 60° | 36% | 1011 mb | 2,629 ft | ||||
| 02-मई | 16:00 | VFR | Calm | 10000 meters | 34° | 93° | 14° | 57° | 30% | 1011 mb | 2,749 ft | ||||
| 02-मई | 15:00 | VFR | Calm | 10000 meters | 34° | 93° | 17° | 62° | 36% | 1011 mb | 2,749 ft | ||||
| 02-मई | 14:00 | VFR | Calm | 10000 meters | 34° | 93° | 16° | 60° | 34% | 1012 mb | 2,720 ft | ||||
| 02-मई | 13:00 | VFR | Calm | 10000 meters | 32° | 89° | 18° | 64° | 43% | 1013 mb | 2,450 ft | ||||
| 02-मई | 12:00 | VFR | Calm | 10000 meters | 32° | 89° | 18° | 64° | 43% | 1014 mb | 2,421 ft |
लॉगिन
| Your browser is unsupported. अपना ब्राऊजर अपग्रेड करें |
